sensor_id;sensor_type;location;lat;lon;timestamp;temperature;humidity
24207;DHT22;12351;52.284;9.160;2022-10-16T00:00:44;14.00;99.90
24207;DHT22;12351;52.284;9.160;2022-10-16T00:03:32;13.90;99.90
24207;DHT22;12351;52.284;9.160;2022-10-16T00:06:23;14.00;99.90
24207;DHT22;12351;52.284;9.160;2022-10-16T00:09:13;14.00;99.90
24207;DHT22;12351;52.284;9.160;2022-10-16T00:12:05;13.90;99.90
24207;DHT22;12351;52.284;9.160;2022-10-16T00:14:54;13.90;99.90
24207;DHT22;12351;52.284;9.160;2022-10-16T00:17:41;13.80;99.90
24207;DHT22;12351;52.284;9.160;2022-10-16T00:20:29;13.90;99.90
24207;DHT22;12351;52.284;9.160;2022-10-16T00:23:20;13.80;99.90
24207;DHT22;12351;52.284;9.160;2022-10-16T00:26:09;13.80;99.90
24207;DHT22;12351;52.284;9.160;2022-10-16T00:28:58;13.80;99.90
24207;DHT22;12351;52.284;9.160;2022-10-16T00:31:46;13.80;99.90
24207;DHT22;12351;52.284;9.160;2022-10-16T00:34:36;13.80;99.90
24207;DHT22;12351;52.284;9.160;2022-10-16T00:37:24;13.80;99.90
24207;DHT22;12351;52.284;9.160;2022-10-16T00:40:13;13.80;99.90
24207;DHT22;12351;52.284;9.160;2022-10-16T00:43:05;13.70;99.90
24207;DHT22;12351;52.284;9.160;2022-10-16T00:45:51;13.70;99.90
24207;DHT22;12351;52.284;9.160;2022-10-16T00:48:41;13.70;99.90
24207;DHT22;12351;52.284;9.160;2022-10-16T00:51:33;13.80;99.90
24207;DHT22;12351;52.284;9.160;2022-10-16T00:54:26;13.80;99.90
24207;DHT22;12351;52.284;9.160;2022-10-16T00:57:13;13.70;99.90
24207;DHT22;12351;52.284;9.160;2022-10-16T01:00:03;13.70;99.90
24207;DHT22;12351;52.284;9.160;2022-10-16T01:02:53;13.70;99.90
24207;DHT22;12351;52.284;9.160;2022-10-16T01:05:44;13.70;99.90
24207;DHT22;12351;52.284;9.160;2022-10-16T01:08:38;13.70;99.90
24207;DHT22;12351;52.284;9.160;2022-10-16T01:14:17;13.80;99.90
24207;DHT22;12351;52.284;9.160;2022-10-16T01:17:06;13.80;99.90
24207;DHT22;12351;52.284;9.160;2022-10-16T01:22:54;13.70;99.90
24207;DHT22;12351;52.284;9.160;2022-10-16T01:25:47;13.70;99.90
24207;DHT22;12351;52.284;9.160;2022-10-16T01:28:32;13.70;99.90
24207;DHT22;12351;52.284;9.160;2022-10-16T01:31:20;13.60;99.90
24207;DHT22;12351;52.284;9.160;2022-10-16T01:34:13;13.60;99.90
24207;DHT22;12351;52.284;9.160;2022-10-16T01:37:02;13.60;99.90
24207;DHT22;12351;52.284;9.160;2022-10-16T01:39:54;13.60;99.90
24207;DHT22;12351;52.284;9.160;2022-10-16T01:45:34;13.60;99.90
24207;DHT22;12351;52.284;9.160;2022-10-16T01:48:25;13.60;99.90
24207;DHT22;12351;52.284;9.160;2022-10-16T01:51:15;13.60;99.90
24207;DHT22;12351;52.284;9.160;2022-10-16T01:54:06;13.60;99.90
24207;DHT22;12351;52.284;9.160;2022-10-16T01:56:56;13.60;99.90
24207;DHT22;12351;52.284;9.160;2022-10-16T01:59:47;13.60;99.90
24207;DHT22;12351;52.284;9.160;2022-10-16T02:02:34;13.60;99.90
24207;DHT22;12351;52.284;9.160;2022-10-16T02:08:15;13.60;99.90
24207;DHT22;12351;52.284;9.160;2022-10-16T02:11:07;13.50;99.90
24207;DHT22;12351;52.284;9.160;2022-10-16T02:13:58;13.50;99.90
24207;DHT22;12351;52.284;9.160;2022-10-16T02:16:45;13.50;99.90
24207;DHT22;12351;52.284;9.160;2022-10-16T02:19:35;13.50;99.90
24207;DHT22;12351;52.284;9.160;2022-10-16T02:22:27;13.40;99.90
24207;DHT22;12351;52.284;9.160;2022-10-16T02:25:17;13.40;99.90
24207;DHT22;12351;52.284;9.160;2022-10-16T02:33:35;13.50;99.90
24207;DHT22;12351;52.284;9.160;2022-10-16T02:36:25;13.50;99.90
24207;DHT22;12351;52.284;9.160;2022-10-16T02:39:16;13.60;99.90
24207;DHT22;12351;52.284;9.160;2022-10-16T02:42:03;13.50;99.90
24207;DHT22;12351;52.284;9.160;2022-10-16T02:44:51;13.50;99.90
24207;DHT22;12351;52.284;9.160;2022-10-16T02:47:40;13.50;99.90
24207;DHT22;12351;52.284;9.160;2022-10-16T02:50:27;13.40;99.90
24207;DHT22;12351;52.284;9.160;2022-10-16T02:53:14;13.40;99.90
24207;DHT22;12351;52.284;9.160;2022-10-16T02:56:03;13.40;99.90
24207;DHT22;12351;52.284;9.160;2022-10-16T02:58:52;13.40;99.90
24207;DHT22;12351;52.284;9.160;2022-10-16T03:01:41;13.30;99.90
24207;DHT22;12351;52.284;9.160;2022-10-16T03:04:30;13.30;99.90
24207;DHT22;12351;52.284;9.160;2022-10-16T03:07:17;13.40;99.90
24207;DHT22;12351;52.284;9.160;2022-10-16T03:10:06;13.30;99.90
24207;DHT22;12351;52.284;9.160;2022-10-16T03:12:55;13.40;99.90
24207;DHT22;12351;52.284;9.160;2022-10-16T03:15:45;13.40;99.90
24207;DHT22;12351;52.284;9.160;2022-10-16T03:18:33;13.40;99.90
24207;DHT22;12351;52.284;9.160;2022-10-16T03:21:20;13.40;99.90
24207;DHT22;12351;52.284;9.160;2022-10-16T03:24:08;13.40;99.90
24207;DHT22;12351;52.284;9.160;2022-10-16T03:26:55;13.40;99.90
24207;DHT22;12351;52.284;9.160;2022-10-16T03:29:43;13.40;99.90
24207;DHT22;12351;52.284;9.160;2022-10-16T03:32:32;13.40;99.90
24207;DHT22;12351;52.284;9.160;2022-10-16T03:35:21;13.30;99.90
24207;DHT22;12351;52.284;9.160;2022-10-16T03:38:10;13.40;99.90
24207;DHT22;12351;52.284;9.160;2022-10-16T03:40:58;13.30;99.90
24207;DHT22;12351;52.284;9.160;2022-10-16T03:43:47;13.40;99.90
24207;DHT22;12351;52.284;9.160;2022-10-16T03:46:37;13.30;99.90
24207;DHT22;12351;52.284;9.160;2022-10-16T03:49:23;13.30;99.90
24207;DHT22;12351;52.284;9.160;2022-10-16T03:52:11;13.30;99.90
24207;DHT22;12351;52.284;9.160;2022-10-16T03:55:01;13.30;99.90
24207;DHT22;12351;52.284;9.160;2022-10-16T03:57:48;13.30;99.90
24207;DHT22;12351;52.284;9.160;2022-10-16T04:03:25;13.30;99.90
24207;DHT22;12351;52.284;9.160;2022-10-16T04:06:14;13.30;99.90
24207;DHT22;12351;52.284;9.160;2022-10-16T04:09:05;13.30;99.90
24207;DHT22;12351;52.284;9.160;2022-10-16T04:11:54;13.30;99.90
24207;DHT22;12351;52.284;9.160;2022-10-16T04:14:43;13.30;99.90
24207;DHT22;12351;52.284;9.160;2022-10-16T04:17:32;13.30;99.90
24207;DHT22;12351;52.284;9.160;2022-10-16T04:20:19;13.40;99.90
24207;DHT22;12351;52.284;9.160;2022-10-16T04:23:07;13.30;99.90
24207;DHT22;12351;52.284;9.160;2022-10-16T04:25:54;13.30;99.90
24207;DHT22;12351;52.284;9.160;2022-10-16T04:28:43;13.30;99.90
24207;DHT22;12351;52.284;9.160;2022-10-16T04:31:33;13.30;99.90
24207;DHT22;12351;52.284;9.160;2022-10-16T04:34:22;13.30;99.90
24207;DHT22;12351;52.284;9.160;2022-10-16T04:37:11;13.30;99.90
24207;DHT22;12351;52.284;9.160;2022-10-16T04:40:01;13.30;99.90
24207;DHT22;12351;52.284;9.160;2022-10-16T04:42:50;13.30;99.90
24207;DHT22;12351;52.284;9.160;2022-10-16T04:45:40;13.30;99.90
24207;DHT22;12351;52.284;9.160;2022-10-16T04:48:27;13.30;99.90
24207;DHT22;12351;52.284;9.160;2022-10-16T04:51:15;13.30;99.90
24207;DHT22;12351;52.284;9.160;2022-10-16T04:54:06;13.30;99.90
24207;DHT22;12351;52.284;9.160;2022-10-16T04:56:54;13.30;99.90
24207;DHT22;12351;52.284;9.160;2022-10-16T04:59:43;13.30;99.90
24207;DHT22;12351;52.284;9.160;2022-10-16T05:02:34;13.30;99.90
24207;DHT22;12351;52.284;9.160;2022-10-16T05:05:22;13.30;99.90
24207;DHT22;12351;52.284;9.160;2022-10-16T05:08:12;13.30;99.90
24207;DHT22;12351;52.284;9.160;2022-10-16T05:11:01;13.30;99.90
24207;DHT22;12351;52.284;9.160;2022-10-16T05:13:48;13.30;99.90
24207;DHT22;12351;52.284;9.160;2022-10-16T05:16:36;13.40;99.90
24207;DHT22;12351;52.284;9.160;2022-10-16T05:19:24;13.40;99.90
24207;DHT22;12351;52.284;9.160;2022-10-16T05:22:13;13.40;99.90
24207;DHT22;12351;52.284;9.160;2022-10-16T05:25:01;13.40;99.90
24207;DHT22;12351;52.284;9.160;2022-10-16T05:27:51;13.40;99.90
24207;DHT22;12351;52.284;9.160;2022-10-16T05:30:38;13.40;99.90
24207;DHT22;12351;52.284;9.160;2022-10-16T05:33:27;13.50;99.90
24207;DHT22;12351;52.284;9.160;2022-10-16T05:36:16;13.50;99.90
24207;DHT22;12351;52.284;9.160;2022-10-16T05:39:05;13.50;99.90
24207;DHT22;12351;52.284;9.160;2022-10-16T05:41:55;13.50;99.90
24207;DHT22;12351;52.284;9.160;2022-10-16T05:44:43;13.50;99.90
24207;DHT22;12351;52.284;9.160;2022-10-16T05:47:34;13.40;99.90
24207;DHT22;12351;52.284;9.160;2022-10-16T05:50:24;13.40;99.90
24207;DHT22;12351;52.284;9.160;2022-10-16T05:53:12;13.40;99.90
24207;DHT22;12351;52.284;9.160;2022-10-16T05:56:01;13.30;99.90
24207;DHT22;12351;52.284;9.160;2022-10-16T05:58:49;13.40;99.90
24207;DHT22;12351;52.284;9.160;2022-10-16T06:01:37;13.40;99.90
24207;DHT22;12351;52.284;9.160;2022-10-16T06:04:27;13.40;99.90
24207;DHT22;12351;52.284;9.160;2022-10-16T06:07:16;13.40;99.90
24207;DHT22;12351;52.284;9.160;2022-10-16T06:10:07;13.40;99.90
24207;DHT22;12351;52.284;9.160;2022-10-16T06:12:56;13.40;99.90
24207;DHT22;12351;52.284;9.160;2022-10-16T06:15:43;13.40;99.90
24207;DHT22;12351;52.284;9.160;2022-10-16T06:18:31;13.50;99.90
24207;DHT22;12351;52.284;9.160;2022-10-16T06:21:20;13.50;99.90
24207;DHT22;12351;52.284;9.160;2022-10-16T06:24:10;13.50;99.90
24207;DHT22;12351;52.284;9.160;2022-10-16T06:26:58;13.50;99.90
24207;DHT22;12351;52.284;9.160;2022-10-16T06:29:46;13.50;99.90
24207;DHT22;12351;52.284;9.160;2022-10-16T06:32:34;13.50;99.90
24207;DHT22;12351;52.284;9.160;2022-10-16T06:35:25;13.60;99.90
24207;DHT22;12351;52.284;9.160;2022-10-16T06:38:12;13.60;99.90
24207;DHT22;12351;52.284;9.160;2022-10-16T06:41:01;13.60;99.90
24207;DHT22;12351;52.284;9.160;2022-10-16T06:43:50;13.70;99.90
24207;DHT22;12351;52.284;9.160;2022-10-16T06:46:38;13.70;99.90
24207;DHT22;12351;52.284;9.160;2022-10-16T06:49:25;13.80;99.90
24207;DHT22;12351;52.284;9.160;2022-10-16T06:52:15;13.80;99.90
24207;DHT22;12351;52.284;9.160;2022-10-16T06:55:04;13.90;99.90
24207;DHT22;12351;52.284;9.160;2022-10-16T06:57:53;13.90;99.90
24207;DHT22;12351;52.284;9.160;2022-10-16T07:00:41;13.90;99.90
24207;DHT22;12351;52.284;9.160;2022-10-16T07:03:29;13.90;99.90
24207;DHT22;12351;52.284;9.160;2022-10-16T07:06:20;13.90;99.90
24207;DHT22;12351;52.284;9.160;2022-10-16T07:09:12;13.90;99.90
24207;DHT22;12351;52.284;9.160;2022-10-16T07:12:00;14.00;99.90
24207;DHT22;12351;52.284;9.160;2022-10-16T07:14:51;14.00;99.90
24207;DHT22;12351;52.284;9.160;2022-10-16T07:17:43;14.10;99.90
24207;DHT22;12351;52.284;9.160;2022-10-16T07:20:35;14.10;99.90
24207;DHT22;12351;52.284;9.160;2022-10-16T07:23:27;14.10;99.90
24207;DHT22;12351;52.284;9.160;2022-10-16T07:26:18;14.20;99.90
24207;DHT22;12351;52.284;9.160;2022-10-16T07:29:11;14.20;99.90
24207;DHT22;12351;52.284;9.160;2022-10-16T07:31:58;14.40;99.90
24207;DHT22;12351;52.284;9.160;2022-10-16T07:34:51;14.60;99.90
24207;DHT22;12351;52.284;9.160;2022-10-16T07:37:43;14.50;99.90
24207;DHT22;12351;52.284;9.160;2022-10-16T07:40:33;14.60;99.90
24207;DHT22;12351;52.284;9.160;2022-10-16T07:43:23;14.60;99.90
24207;DHT22;12351;52.284;9.160;2022-10-16T07:46:11;14.70;99.90
24207;DHT22;12351;52.284;9.160;2022-10-16T07:49:02;14.70;99.90
24207;DHT22;12351;52.284;9.160;2022-10-16T07:51:48;14.80;99.90
24207;DHT22;12351;52.284;9.160;2022-10-16T07:54:39;14.80;99.90
24207;DHT22;12351;52.284;9.160;2022-10-16T07:57:29;14.80;99.90
24207;DHT22;12351;52.284;9.160;2022-10-16T08:00:19;14.80;99.90
24207;DHT22;12351;52.284;9.160;2022-10-16T08:03:09;14.80;99.90
24207;DHT22;12351;52.284;9.160;2022-10-16T08:06:01;14.90;99.90
24207;DHT22;12351;52.284;9.160;2022-10-16T08:08:51;14.90;99.90
24207;DHT22;12351;52.284;9.160;2022-10-16T08:11:42;14.80;99.90
24207;DHT22;12351;52.284;9.160;2022-10-16T08:14:30;14.70;99.90
24207;DHT22;12351;52.284;9.160;2022-10-16T08:17:22;14.70;99.90
24207;DHT22;12351;52.284;9.160;2022-10-16T08:20:11;14.80;99.90
24207;DHT22;12351;52.284;9.160;2022-10-16T08:23:04;14.80;99.90
24207;DHT22;12351;52.284;9.160;2022-10-16T08:25:53;14.80;99.90
24207;DHT22;12351;52.284;9.160;2022-10-16T08:28:45;14.90;99.90
24207;DHT22;12351;52.284;9.160;2022-10-16T08:31:36;15.00;99.90
24207;DHT22;12351;52.284;9.160;2022-10-16T08:34:25;15.10;99.90
24207;DHT22;12351;52.284;9.160;2022-10-16T08:37:18;15.10;99.90
24207;DHT22;12351;52.284;9.160;2022-10-16T08:48:49;15.20;99.90
24207;DHT22;12351;52.284;9.160;2022-10-16T08:51:39;15.30;99.90
24207;DHT22;12351;52.284;9.160;2022-10-16T08:54:34;15.30;99.90
24207;DHT22;12351;52.284;9.160;2022-10-16T08:57:25;15.30;99.90
24207;DHT22;12351;52.284;9.160;2022-10-16T09:00:18;15.40;99.90
24207;DHT22;12351;52.284;9.160;2022-10-16T09:06:00;15.50;99.90
24207;DHT22;12351;52.284;9.160;2022-10-16T09:08:52;15.50;99.90
24207;DHT22;12351;52.284;9.160;2022-10-16T09:26:03;15.80;99.90
24207;DHT22;12351;52.284;9.160;2022-10-16T09:28:52;15.80;99.90
24207;DHT22;12351;52.284;9.160;2022-10-16T09:31:41;15.80;99.90
24207;DHT22;12351;52.284;9.160;2022-10-16T09:34:32;15.70;99.90
24207;DHT22;12351;52.284;9.160;2022-10-16T09:37:22;15.60;99.90
24207;DHT22;12351;52.284;9.160;2022-10-16T09:40:23;15.60;99.90
24207;DHT22;12351;52.284;9.160;2022-10-16T09:45:58;15.70;99.90
24207;DHT22;12351;52.284;9.160;2022-10-16T09:48:50;15.80;99.90
24207;DHT22;12351;52.284;9.160;2022-10-16T09:51:37;16.00;99.90
24207;DHT22;12351;52.284;9.160;2022-10-16T09:54:26;16.00;99.90
24207;DHT22;12351;52.284;9.160;2022-10-16T09:57:17;16.10;99.90
24207;DHT22;12351;52.284;9.160;2022-10-16T10:00:10;16.20;99.90
24207;DHT22;12351;52.284;9.160;2022-10-16T10:02:59;16.50;99.90
24207;DHT22;12351;52.284;9.160;2022-10-16T10:05:50;16.40;99.90
24207;DHT22;12351;52.284;9.160;2022-10-16T10:08:51;16.50;99.90
24207;DHT22;12351;52.284;9.160;2022-10-16T10:14:26;16.50;99.90
24207;DHT22;12351;52.284;9.160;2022-10-16T10:22:58;16.70;99.90
24207;DHT22;12351;52.284;9.160;2022-10-16T10:25:49;16.90;99.90
24207;DHT22;12351;52.284;9.160;2022-10-16T10:37:22;17.30;99.90
24207;DHT22;12351;52.284;9.160;2022-10-16T10:40:11;17.30;99.90
24207;DHT22;12351;52.284;9.160;2022-10-16T10:42:59;17.30;99.90
24207;DHT22;12351;52.284;9.160;2022-10-16T10:45:50;17.30;99.90
24207;DHT22;12351;52.284;9.160;2022-10-16T10:54:26;17.40;99.90
24207;DHT22;12351;52.284;9.160;2022-10-16T11:08:33;17.30;99.90
24207;DHT22;12351;52.284;9.160;2022-10-16T11:11:25;17.50;99.90
24207;DHT22;12351;52.284;9.160;2022-10-16T11:14:18;17.80;99.90
24207;DHT22;12351;52.284;9.160;2022-10-16T11:19:46;17.80;99.90
24207;DHT22;12351;52.284;9.160;2022-10-16T11:28:16;17.90;99.90
24207;DHT22;12351;52.284;9.160;2022-10-16T11:36:47;17.50;99.90
24207;DHT22;12351;52.284;9.160;2022-10-16T11:39:33;17.60;99.90
24207;DHT22;12351;52.284;9.160;2022-10-16T11:42:25;17.60;99.90
24207;DHT22;12351;52.284;9.160;2022-10-16T11:50:48;18.00;99.90
24207;DHT22;12351;52.284;9.160;2022-10-16T11:56:24;17.80;99.90
24207;DHT22;12351;52.284;9.160;2022-10-16T12:04:54;17.60;99.90
24207;DHT22;12351;52.284;9.160;2022-10-16T12:07:47;17.70;99.90
24207;DHT22;12351;52.284;9.160;2022-10-16T12:10:31;17.70;99.90
24207;DHT22;12351;52.284;9.160;2022-10-16T12:19:09;17.70;99.90
24207;DHT22;12351;52.284;9.160;2022-10-16T12:24:42;17.80;99.90
24207;DHT22;12351;52.284;9.160;2022-10-16T12:27:32;17.80;99.90
24207;DHT22;12351;52.284;9.160;2022-10-16T12:30:25;17.90;99.90
24207;DHT22;12351;52.284;9.160;2022-10-16T12:36:05;18.00;99.90
24207;DHT22;12351;52.284;9.160;2022-10-16T12:38:52;17.80;99.90
24207;DHT22;12351;52.284;9.160;2022-10-16T12:41:40;18.30;99.90
24207;DHT22;12351;52.284;9.160;2022-10-16T12:47:21;18.00;99.90
24207;DHT22;12351;52.284;9.160;2022-10-16T12:53:01;18.00;99.90
24207;DHT22;12351;52.284;9.160;2022-10-16T12:55:53;17.80;99.90
24207;DHT22;12351;52.284;9.160;2022-10-16T13:01:35;17.80;99.90
24207;DHT22;12351;52.284;9.160;2022-10-16T13:04:23;18.00;99.90
24207;DHT22;12351;52.284;9.160;2022-10-16T13:07:16;18.30;99.90
24207;DHT22;12351;52.284;9.160;2022-10-16T13:32:34;18.70;99.90
24207;DHT22;12351;52.284;9.160;2022-10-16T13:35:24;18.60;99.90
24207;DHT22;12351;52.284;9.160;2022-10-16T13:38:15;18.30;99.90
24207;DHT22;12351;52.284;9.160;2022-10-16T13:41:05;18.30;99.90
24207;DHT22;12351;52.284;9.160;2022-10-16T13:43:55;18.20;99.90
24207;DHT22;12351;52.284;9.160;2022-10-16T13:46:42;18.50;99.90
24207;DHT22;12351;52.284;9.160;2022-10-16T13:49:30;18.60;99.90
24207;DHT22;12351;52.284;9.160;2022-10-16T13:52:19;18.70;99.90
24207;DHT22;12351;52.284;9.160;2022-10-16T13:58:07;18.40;99.90
24207;DHT22;12351;52.284;9.160;2022-10-16T14:03:38;18.30;99.90
24207;DHT22;12351;52.284;9.160;2022-10-16T14:06:26;18.20;99.90
24207;DHT22;12351;52.284;9.160;2022-10-16T14:14:55;18.30;99.90
24207;DHT22;12351;52.284;9.160;2022-10-16T14:17:45;18.40;99.90
24207;DHT22;12351;52.284;9.160;2022-10-16T14:20:35;18.40;99.90
24207;DHT22;12351;52.284;9.160;2022-10-16T14:26:17;18.30;99.90
24207;DHT22;12351;52.284;9.160;2022-10-16T14:31:59;18.10;99.90
24207;DHT22;12351;52.284;9.160;2022-10-16T14:34:53;18.30;99.90
24207;DHT22;12351;52.284;9.160;2022-10-16T14:37:37;18.30;99.90
24207;DHT22;12351;52.284;9.160;2022-10-16T14:40:28;18.60;99.90
24207;DHT22;12351;52.284;9.160;2022-10-16T14:51:48;18.00;99.90
24207;DHT22;12351;52.284;9.160;2022-10-16T14:54:38;17.90;99.90
24207;DHT22;12351;52.284;9.160;2022-10-16T14:57:27;17.90;99.90
24207;DHT22;12351;52.284;9.160;2022-10-16T15:03:04;17.90;99.90
24207;DHT22;12351;52.284;9.160;2022-10-16T15:05:53;17.80;99.90
24207;DHT22;12351;52.284;9.160;2022-10-16T15:08:41;17.70;99.90
24207;DHT22;12351;52.284;9.160;2022-10-16T15:11:29;17.70;99.90
24207;DHT22;12351;52.284;9.160;2022-10-16T15:14:18;17.60;99.90
24207;DHT22;12351;52.284;9.160;2022-10-16T15:17:10;17.60;99.90
24207;DHT22;12351;52.284;9.160;2022-10-16T15:19:56;17.50;99.90
24207;DHT22;12351;52.284;9.160;2022-10-16T15:22:47;17.40;99.90
24207;DHT22;12351;52.284;9.160;2022-10-16T15:25:37;17.40;99.90
24207;DHT22;12351;52.284;9.160;2022-10-16T15:28:29;17.40;99.90
24207;DHT22;12351;52.284;9.160;2022-10-16T15:31:18;17.30;99.90
24207;DHT22;12351;52.284;9.160;2022-10-16T15:34:10;17.20;99.90
24207;DHT22;12351;52.284;9.160;2022-10-16T15:37:02;17.00;99.90
24207;DHT22;12351;52.284;9.160;2022-10-16T15:39:50;16.90;99.90
24207;DHT22;12351;52.284;9.160;2022-10-16T15:42:38;16.80;99.90
24207;DHT22;12351;52.284;9.160;2022-10-16T15:45:27;16.80;99.90
24207;DHT22;12351;52.284;9.160;2022-10-16T15:48:14;16.90;99.90
24207;DHT22;12351;52.284;9.160;2022-10-16T15:51:04;16.80;99.90
24207;DHT22;12351;52.284;9.160;2022-10-16T15:53:54;16.60;99.90
24207;DHT22;12351;52.284;9.160;2022-10-16T15:56:43;16.60;99.90
24207;DHT22;12351;52.284;9.160;2022-10-16T15:59:31;16.50;99.90
24207;DHT22;12351;52.284;9.160;2022-10-16T16:02:18;16.30;99.90
24207;DHT22;12351;52.284;9.160;2022-10-16T16:05:05;16.20;99.90
24207;DHT22;12351;52.284;9.160;2022-10-16T16:07:53;16.00;99.90
24207;DHT22;12351;52.284;9.160;2022-10-16T16:10:40;15.90;99.90
24207;DHT22;12351;52.284;9.160;2022-10-16T16:13:28;15.80;99.90
24207;DHT22;12351;52.284;9.160;2022-10-16T16:16:16;15.60;99.90
24207;DHT22;12351;52.284;9.160;2022-10-16T16:19:05;15.50;99.90
24207;DHT22;12351;52.284;9.160;2022-10-16T16:21:53;15.40;99.90
24207;DHT22;12351;52.284;9.160;2022-10-16T16:24:43;15.40;99.90
24207;DHT22;12351;52.284;9.160;2022-10-16T16:27:31;15.30;99.90
24207;DHT22;12351;52.284;9.160;2022-10-16T16:30:21;15.20;99.90
24207;DHT22;12351;52.284;9.160;2022-10-16T16:33:08;15.20;99.90
24207;DHT22;12351;52.284;9.160;2022-10-16T16:35:57;15.20;99.90
24207;DHT22;12351;52.284;9.160;2022-10-16T16:38:46;15.10;99.90
24207;DHT22;12351;52.284;9.160;2022-10-16T16:41:34;15.10;99.90
24207;DHT22;12351;52.284;9.160;2022-10-16T16:44:24;15.00;99.90
24207;DHT22;12351;52.284;9.160;2022-10-16T16:47:11;14.90;99.90
24207;DHT22;12351;52.284;9.160;2022-10-16T16:49:59;15.00;99.90
24207;DHT22;12351;52.284;9.160;2022-10-16T16:52:48;14.90;99.90
24207;DHT22;12351;52.284;9.160;2022-10-16T16:55:37;14.90;99.90
24207;DHT22;12351;52.284;9.160;2022-10-16T17:01:13;15.00;99.90
24207;DHT22;12351;52.284;9.160;2022-10-16T17:04:01;15.10;99.90
24207;DHT22;12351;52.284;9.160;2022-10-16T17:06:51;15.10;99.90
24207;DHT22;12351;52.284;9.160;2022-10-16T17:09:38;15.00;99.90
24207;DHT22;12351;52.284;9.160;2022-10-16T17:12:24;15.00;99.90
24207;DHT22;12351;52.284;9.160;2022-10-16T17:15:11;14.80;99.90
24207;DHT22;12351;52.284;9.160;2022-10-16T17:18:00;14.80;99.90
24207;DHT22;12351;52.284;9.160;2022-10-16T17:20:47;14.90;99.90
24207;DHT22;12351;52.284;9.160;2022-10-16T17:23:34;14.90;99.90
24207;DHT22;12351;52.284;9.160;2022-10-16T17:26:22;14.90;99.90
24207;DHT22;12351;52.284;9.160;2022-10-16T17:29:13;14.90;99.90
24207;DHT22;12351;52.284;9.160;2022-10-16T17:32:01;14.80;99.90
24207;DHT22;12351;52.284;9.160;2022-10-16T17:34:47;14.80;99.90
24207;DHT22;12351;52.284;9.160;2022-10-16T17:37:35;14.80;99.90
24207;DHT22;12351;52.284;9.160;2022-10-16T17:40:25;14.70;99.90
24207;DHT22;12351;52.284;9.160;2022-10-16T17:43:12;14.70;99.90
24207;DHT22;12351;52.284;9.160;2022-10-16T17:46:02;14.60;99.90
24207;DHT22;12351;52.284;9.160;2022-10-16T17:48:51;14.60;99.90
24207;DHT22;12351;52.284;9.160;2022-10-16T17:51:40;14.50;99.90
24207;DHT22;12351;52.284;9.160;2022-10-16T17:54:27;14.40;99.90
24207;DHT22;12351;52.284;9.160;2022-10-16T17:57:14;14.40;99.90
24207;DHT22;12351;52.284;9.160;2022-10-16T18:00:03;14.30;99.90
24207;DHT22;12351;52.284;9.160;2022-10-16T18:02:51;14.30;99.90
24207;DHT22;12351;52.284;9.160;2022-10-16T18:05:41;14.30;99.90
24207;DHT22;12351;52.284;9.160;2022-10-16T18:08:28;14.30;99.90
24207;DHT22;12351;52.284;9.160;2022-10-16T18:11:16;14.20;99.90
24207;DHT22;12351;52.284;9.160;2022-10-16T18:14:04;14.20;99.90
24207;DHT22;12351;52.284;9.160;2022-10-16T18:16:54;14.20;99.90
24207;DHT22;12351;52.284;9.160;2022-10-16T18:19:43;14.20;99.90
24207;DHT22;12351;52.284;9.160;2022-10-16T18:22:33;14.00;99.90
24207;DHT22;12351;52.284;9.160;2022-10-16T18:25:23;14.00;99.90
24207;DHT22;12351;52.284;9.160;2022-10-16T18:28:13;14.00;99.90
24207;DHT22;12351;52.284;9.160;2022-10-16T18:31:02;14.00;99.90
24207;DHT22;12351;52.284;9.160;2022-10-16T18:33:49;14.00;99.90
24207;DHT22;12351;52.284;9.160;2022-10-16T18:36:38;13.90;99.90
24207;DHT22;12351;52.284;9.160;2022-10-16T18:39:25;13.80;99.90
24207;DHT22;12351;52.284;9.160;2022-10-16T18:42:15;13.80;99.90
24207;DHT22;12351;52.284;9.160;2022-10-16T18:45:04;13.90;99.90
24207;DHT22;12351;52.284;9.160;2022-10-16T18:47:53;13.90;99.90
24207;DHT22;12351;52.284;9.160;2022-10-16T18:50:41;13.90;99.90
24207;DHT22;12351;52.284;9.160;2022-10-16T18:53:29;13.80;99.90
24207;DHT22;12351;52.284;9.160;2022-10-16T18:56:19;13.80;99.90
24207;DHT22;12351;52.284;9.160;2022-10-16T18:59:08;13.90;99.90
24207;DHT22;12351;52.284;9.160;2022-10-16T19:01:56;13.90;99.90
24207;DHT22;12351;52.284;9.160;2022-10-16T19:04:46;13.90;99.90
24207;DHT22;12351;52.284;9.160;2022-10-16T19:07:34;13.80;99.90
24207;DHT22;12351;52.284;9.160;2022-10-16T19:10:23;13.80;99.90
24207;DHT22;12351;52.284;9.160;2022-10-16T19:13:11;13.80;99.90
24207;DHT22;12351;52.284;9.160;2022-10-16T19:15:59;13.80;99.90
24207;DHT22;12351;52.284;9.160;2022-10-16T19:18:50;13.80;99.90
24207;DHT22;12351;52.284;9.160;2022-10-16T19:21:37;13.80;99.90
24207;DHT22;12351;52.284;9.160;2022-10-16T19:24:25;13.80;99.90
24207;DHT22;12351;52.284;9.160;2022-10-16T19:27:12;13.70;99.90
24207;DHT22;12351;52.284;9.160;2022-10-16T19:30:00;13.70;99.90
24207;DHT22;12351;52.284;9.160;2022-10-16T19:32:47;13.60;99.90
24207;DHT22;12351;52.284;9.160;2022-10-16T19:35:37;13.60;99.90
24207;DHT22;12351;52.284;9.160;2022-10-16T19:38:25;13.60;99.90
24207;DHT22;12351;52.284;9.160;2022-10-16T19:41:15;13.60;99.90
24207;DHT22;12351;52.284;9.160;2022-10-16T19:44:05;13.60;99.90
24207;DHT22;12351;52.284;9.160;2022-10-16T19:46:53;13.60;99.90
24207;DHT22;12351;52.284;9.160;2022-10-16T19:49:43;13.70;99.90
24207;DHT22;12351;52.284;9.160;2022-10-16T19:52:32;13.70;99.90
24207;DHT22;12351;52.284;9.160;2022-10-16T19:55:21;13.80;99.90
24207;DHT22;12351;52.284;9.160;2022-10-16T19:58:08;13.80;99.90
24207;DHT22;12351;52.284;9.160;2022-10-16T20:00:55;13.80;99.90
24207;DHT22;12351;52.284;9.160;2022-10-16T20:03:45;13.80;99.90
24207;DHT22;12351;52.284;9.160;2022-10-16T20:06:32;13.90;99.90
24207;DHT22;12351;52.284;9.160;2022-10-16T20:09:19;13.90;99.90
24207;DHT22;12351;52.284;9.160;2022-10-16T20:12:07;13.90;99.90
24207;DHT22;12351;52.284;9.160;2022-10-16T20:14:55;13.90;99.90
24207;DHT22;12351;52.284;9.160;2022-10-16T20:17:44;13.90;99.90
24207;DHT22;12351;52.284;9.160;2022-10-16T20:20:31;13.90;99.90
24207;DHT22;12351;52.284;9.160;2022-10-16T20:23:22;14.00;99.90
24207;DHT22;12351;52.284;9.160;2022-10-16T20:26:10;14.00;99.90
24207;DHT22;12351;52.284;9.160;2022-10-16T20:28:58;14.00;99.90
24207;DHT22;12351;52.284;9.160;2022-10-16T20:31:47;14.10;99.90
24207;DHT22;12351;52.284;9.160;2022-10-16T20:34:35;14.10;99.90
24207;DHT22;12351;52.284;9.160;2022-10-16T20:37:25;14.10;99.90
24207;DHT22;12351;52.284;9.160;2022-10-16T20:40:14;14.20;99.90
24207;DHT22;12351;52.284;9.160;2022-10-16T20:43:04;14.20;99.90
24207;DHT22;12351;52.284;9.160;2022-10-16T20:48:43;14.30;99.90
24207;DHT22;12351;52.284;9.160;2022-10-16T20:51:31;14.40;99.90
24207;DHT22;12351;52.284;9.160;2022-10-16T20:54:19;14.50;99.90